Kezdőlap
METAR-TAF:

METAR-TAF

Repülőterek :

Nagyszeben, Románia

földrajzi szélesség: 45-48N, földrajzi hosszúság: 024-09E, magasság: 443 m

Jelenlegi meteorológiai megfigyelések

A jelentés 41 perccel ezelõtt készült, 07:30 UTC
Keleti szél 3 kt
Hőmérséklet 10°C
Páratartalom 50%
Légköri nyomás 1028 hPa
Látótávolság 10 km, vagy több
felhőtlen 1500 m magasságban, és nincs gomolyfelhõ

METAR: LRSB 200730Z 10003KT CAVOK 10/00 Q1028

Idő: 11:11 (08:11 UTC)

Előrejelzés

A jelentés 3 órával és 11 perccel ezelõtt készült, 05:00 UTC
Az előrejelzés 20-én 06 óra UTC és 21-én 06 óra UTC között érvényes
Különbözõ irányokból fújó szél 4 kt
Látótávolság 10 km, vagy több
felhőtlen 1500 m magasságban, és nincs gomolyfelhõ

TAF: LRSB 200500Z 2006/2106 VRB04KT CAVOK

Meteorológiai megfigyelések és előrejelzések több, mint 4000 repülőtéren (METAR és TAF jelentéseket).

A térképen piros és sárga pontok jelzik az elérhető meteorológiai állomásokat.

Mozgassa az egeret a pont fölött, hogy megjelenjen az állomás neve.

Azután kattintson az időjárási megfigyelések és előrejelzések megtekintéséhez.

A térkép megváltoztatása: kattintson a fekete keresztel jelölt zöld gombra ráközelítéshez, a vonallal jelölt zöld gombra távolításhoz, vagy a zöld nyilakra a szomszédos térképek eléréséhez.


METAR-TAF: